createdAt,value
2017-05-12T00:00:23.841Z,14.5
2017-05-12T00:01:25.448Z,14.5
2017-05-12T00:02:27.399Z,14.5
2017-05-12T00:03:29.054Z,14.5
2017-05-12T00:04:30.697Z,14.5
2017-05-12T00:05:32.307Z,14.5
2017-05-12T00:06:33.923Z,14.5
2017-05-12T00:07:35.872Z,14.5
2017-05-12T00:08:37.840Z,14.5
2017-05-12T00:09:39.447Z,14.5
2017-05-12T00:10:41.396Z,14.5
2017-05-12T00:11:43.013Z,14.5
2017-05-12T00:12:44.626Z,14.5
2017-05-12T00:13:46.233Z,14.5
2017-05-12T00:14:47.847Z,14.5
2017-05-12T00:15:49.461Z,14.5
2017-05-12T00:16:51.076Z,14.5
2017-05-12T00:17:52.681Z,14.5
2017-05-12T00:18:54.290Z,14.5
2017-05-12T00:19:55.900Z,14.5
2017-05-12T00:20:57.850Z,14.5
2017-05-12T00:21:59.462Z,14.5
2017-05-12T00:23:01.077Z,14.5
2017-05-12T00:24:02.682Z,14.5
2017-05-12T00:25:04.301Z,14.5
2017-05-12T00:26:05.910Z,14.5
2017-05-12T00:27:07.518Z,14.5
2017-05-12T00:28:09.130Z,14.5
2017-05-12T00:29:10.746Z,14.5
2017-05-12T00:30:12.369Z,14.5
2017-05-12T00:31:13.975Z,14.5
2017-05-12T00:32:15.585Z,14.5
2017-05-12T00:33:17.198Z,14.5
2017-05-12T00:34:18.807Z,14.5
2017-05-12T00:35:20.417Z,14.5
2017-05-12T00:36:22.029Z,14.4
2017-05-12T00:37:23.682Z,14.4
2017-05-12T00:38:25.390Z,14.4
2017-05-12T00:39:27.000Z,14.4
2017-05-12T00:40:28.613Z,14.4
2017-05-12T00:41:30.559Z,14.3
2017-05-12T00:42:32.501Z,14.4
2017-05-12T00:43:34.107Z,14.3
2017-05-12T00:44:35.729Z,14.3
2017-05-12T00:45:37.701Z,14.4
2017-05-12T00:46:39.646Z,14.3
2017-05-12T00:47:41.260Z,14.3
2017-05-12T00:48:42.869Z,14.3
2017-05-12T00:49:44.473Z,14.3
2017-05-12T00:50:46.085Z,14.3
2017-05-12T00:51:47.693Z,14.3
2017-05-12T00:52:49.300Z,14.3
2017-05-12T00:53:50.917Z,14.3
2017-05-12T00:54:52.526Z,14.3
2017-05-12T00:55:54.148Z,14.3
2017-05-12T00:56:55.794Z,14.3
2017-05-12T00:57:57.404Z,14.3
2017-05-12T00:58:59.377Z,14.3
2017-05-12T01:00:00.983Z,14.3
2017-05-12T01:01:02.593Z,14.3
2017-05-12T01:02:04.214Z,14.3
2017-05-12T01:03:05.828Z,14.3
2017-05-12T01:04:07.474Z,14.3
2017-05-12T01:05:09.091Z,14.3
2017-05-12T01:06:10.713Z,14.3
2017-05-12T01:07:12.315Z,14.3
2017-05-12T01:08:14.264Z,14.3
2017-05-12T01:09:15.872Z,14.3
2017-05-12T01:10:17.840Z,14.3
2017-05-12T01:11:19.449Z,14.3
2017-05-12T01:12:21.069Z,14.3
2017-05-12T01:13:22.679Z,14.3
2017-05-12T01:14:24.297Z,14.3
2017-05-12T01:15:25.901Z,14.3
2017-05-12T01:16:27.517Z,14.3
2017-05-12T01:17:29.126Z,14.3
2017-05-12T01:18:30.738Z,14.3
2017-05-12T01:19:32.365Z,14.3
2017-05-12T01:20:34.312Z,14.3
2017-05-12T01:21:35.929Z,14.3
2017-05-12T01:22:37.543Z,14.3
2017-05-12T01:23:39.160Z,14.3
2017-05-12T01:24:40.764Z,14.3
2017-05-12T01:25:42.729Z,14.3
2017-05-12T01:26:44.341Z,14.3
2017-05-12T01:27:45.957Z,14.4
2017-05-12T01:28:47.905Z,14.4
2017-05-12T01:29:49.526Z,14.4
2017-05-12T01:30:51.150Z,14.5
2017-05-12T01:31:52.762Z,14.5
2017-05-12T01:32:54.771Z,14.6
2017-05-12T01:33:56.388Z,14.6
2017-05-12T01:34:58.003Z,14.6
2017-05-12T01:35:59.954Z,14.6
2017-05-12T01:37:01.904Z,14.6
2017-05-12T01:38:03.523Z,14.6
2017-05-12T01:39:05.133Z,14.6
2017-05-12T01:40:06.751Z,14.6
2017-05-12T01:41:08.370Z,14.6
2017-05-12T01:42:09.987Z,14.6
2017-05-12T01:43:11.606Z,14.6
2017-05-12T01:44:13.219Z,14.6
2017-05-12T01:45:15.176Z,14.6
2017-05-12T01:46:16.788Z,14.6
2017-05-12T01:47:18.406Z,14.6
2017-05-12T01:48:20.354Z,14.6
2017-05-12T01:49:21.971Z,14.6
2017-05-12T01:50:23.922Z,14.6
2017-05-12T01:51:25.540Z,14.5
2017-05-12T01:52:27.156Z,14.5
2017-05-12T01:53:28.768Z,14.5
2017-05-12T01:54:30.387Z,14.5
2017-05-12T01:55:31.995Z,14.5
2017-05-12T01:56:33.612Z,14.5
2017-05-12T01:57:35.224Z,14.5
2017-05-12T01:58:36.832Z,14.5
2017-05-12T01:59:38.452Z,14.5
2017-05-12T02:00:40.071Z,14.5
2017-05-12T02:01:41.687Z,14.5
2017-05-12T02:02:43.632Z,14.5
2017-05-12T02:03:45.259Z,14.5
2017-05-12T02:04:46.867Z,14.5
2017-05-12T02:05:48.485Z,14.5
2017-05-12T02:06:50.102Z,14.5
2017-05-12T02:07:51.724Z,14.5
2017-05-12T02:08:53.344Z,14.5
2017-05-12T02:09:54.953Z,14.5
2017-05-12T02:10:56.561Z,14.5
2017-05-12T02:11:58.177Z,14.5
2017-05-12T02:12:59.795Z,14.5
2017-05-12T02:14:01.404Z,14.5
2017-05-12T02:15:03.016Z,14.5
2017-05-12T02:16:04.633Z,14.5
2017-05-12T02:17:06.249Z,14.5
2017-05-12T02:18:07.868Z,14.4
2017-05-12T02:19:09.482Z,14.4
2017-05-12T02:20:11.100Z,14.4
2017-05-12T02:21:12.710Z,14.4
2017-05-12T02:22:14.329Z,14.4
2017-05-12T02:23:15.944Z,14.4
2017-05-12T02:24:17.898Z,14.4
2017-05-12T02:25:19.511Z,14.4
2017-05-12T02:26:21.132Z,14.4
2017-05-12T02:27:22.746Z,14.4
2017-05-12T02:28:24.361Z,14.4
2017-05-12T02:29:25.970Z,14.4
2017-05-12T02:30:27.581Z,14.4
2017-05-12T02:31:29.231Z,14.4
2017-05-12T02:32:30.855Z,14.4
2017-05-12T02:33:32.458Z,14.3
2017-05-12T02:34:34.478Z,14.3
2017-05-12T02:35:36.080Z,14.3
2017-05-12T02:36:37.695Z,14.3
2017-05-12T02:37:39.315Z,14.3
2017-05-12T02:38:41.269Z,14.3
2017-05-12T02:39:42.888Z,14.3
2017-05-12T02:40:44.502Z,14.3
2017-05-12T02:41:46.109Z,14.2
2017-05-12T02:42:47.763Z,14.2
2017-05-12T02:43:49.380Z,14.2
2017-05-12T02:44:50.996Z,14.2
2017-05-12T02:45:52.600Z,14.2
2017-05-12T02:46:54.222Z,14.2
2017-05-12T02:47:56.166Z,14.2
2017-05-12T02:48:57.777Z,14.2
2017-05-12T02:49:59.389Z,14.2
2017-05-12T02:51:01.343Z,14.2
2017-05-12T02:52:02.956Z,14.2
2017-05-12T02:53:04.572Z,14.2
2017-05-12T02:54:06.193Z,14.2
2017-05-12T02:55:07.809Z,14.2
2017-05-12T02:56:09.428Z,14.1
2017-05-12T02:57:11.041Z,14.1
2017-05-12T02:58:12.652Z,14.1
2017-05-12T02:59:14.280Z,14.1
2017-05-12T03:00:15.896Z,14.1
2017-05-12T03:01:17.514Z,14.1
2017-05-12T03:02:19.124Z,14.1
2017-05-12T03:03:20.734Z,14.1
2017-05-12T03:04:22.347Z,14.1
2017-05-12T03:05:23.975Z,14.1
2017-05-12T03:06:25.593Z,14
2017-05-12T03:07:27.203Z,14
2017-05-12T03:08:28.818Z,14
2017-05-12T03:09:30.435Z,14
2017-05-12T03:10:32.040Z,14
2017-05-12T03:11:33.654Z,14
2017-05-12T03:12:35.602Z,14
2017-05-12T03:13:37.215Z,14
2017-05-12T03:14:39.171Z,14
2017-05-12T03:15:40.777Z,14
2017-05-12T03:16:42.390Z,14
2017-05-12T03:17:44.005Z,14
2017-05-12T03:18:45.950Z,14
2017-05-12T03:19:47.907Z,14
2017-05-12T03:20:49.868Z,14
2017-05-12T03:21:51.484Z,14
2017-05-12T03:22:53.092Z,14
2017-05-12T03:23:54.712Z,14
2017-05-12T03:24:56.320Z,14
2017-05-12T03:25:57.941Z,14
2017-05-12T03:26:59.544Z,14
2017-05-12T03:28:01.153Z,14
2017-05-12T03:29:02.768Z,14
2017-05-12T03:30:04.387Z,14.1
2017-05-12T03:31:05.991Z,14
2017-05-12T03:32:07.611Z,14
2017-05-12T03:33:09.226Z,14
2017-05-12T03:34:10.839Z,14
2017-05-12T03:35:12.453Z,14
2017-05-12T03:36:14.070Z,14
2017-05-12T03:37:15.677Z,14
2017-05-12T03:38:17.288Z,14
2017-05-12T03:39:18.896Z,14
2017-05-12T03:40:20.556Z,14
2017-05-12T03:41:22.172Z,13.9
2017-05-12T03:42:24.125Z,13.9
2017-05-12T03:43:26.410Z,13.9
2017-05-12T03:44:28.027Z,13.9
2017-05-12T03:45:29.631Z,13.9
2017-05-12T03:46:31.250Z,13.8
2017-05-12T03:47:32.866Z,13.8
2017-05-12T03:48:34.478Z,13.8
2017-05-12T03:49:36.089Z,13.8
2017-05-12T03:50:37.714Z,13.8
2017-05-12T03:51:39.327Z,13.8
2017-05-12T03:52:40.941Z,13.8
2017-05-12T03:53:42.896Z,13.8
2017-05-12T03:54:44.865Z,13.8
2017-05-12T03:55:46.476Z,13.8
2017-05-12T03:56:48.438Z,13.8
2017-05-12T03:57:50.050Z,13.9
2017-05-12T03:58:51.667Z,13.9
2017-05-12T03:59:53.611Z,13.9
2017-05-12T04:00:55.231Z,13.9
2017-05-12T04:01:56.852Z,13.9
2017-05-12T04:02:58.466Z,13.9
2017-05-12T04:04:00.077Z,13.8
2017-05-12T04:05:01.696Z,13.8
2017-05-12T04:06:03.309Z,13.8
2017-05-12T04:07:04.916Z,13.8
2017-05-12T04:08:06.528Z,13.8
2017-05-12T04:09:08.478Z,13.8
2017-05-12T04:10:10.088Z,13.9
2017-05-12T04:11:11.705Z,13.8
2017-05-12T04:12:13.314Z,13.8
2017-05-12T04:13:14.933Z,13.8
2017-05-12T04:14:16.894Z,13.8
2017-05-12T04:15:18.507Z,13.8
2017-05-12T04:16:20.125Z,13.8
2017-05-12T04:17:21.735Z,13.8
2017-05-12T04:18:23.338Z,13.8
2017-05-12T04:19:24.953Z,13.8
2017-05-12T04:20:26.572Z,13.9
2017-05-12T04:21:28.182Z,13.9
2017-05-12T04:22:29.796Z,13.9
2017-05-12T04:23:31.760Z,13.9
2017-05-12T04:24:33.707Z,13.9
2017-05-12T04:25:35.324Z,13.9
2017-05-12T04:26:36.928Z,13.9
2017-05-12T04:27:38.553Z,13.9
2017-05-12T04:28:40.171Z,13.9
2017-05-12T04:29:42.129Z,13.9
2017-05-12T04:30:43.737Z,14
2017-05-12T04:31:45.351Z,13.9
2017-05-12T04:32:46.957Z,14
2017-05-12T04:33:48.565Z,14
2017-05-12T04:34:50.178Z,14
2017-05-12T04:35:51.831Z,13.9
2017-05-12T04:36:53.441Z,14
2017-05-12T04:37:55.057Z,14
2017-05-12T04:38:56.663Z,13.9
2017-05-12T04:39:58.389Z,13.9
2017-05-12T04:41:00.003Z,13.9
2017-05-12T04:42:01.613Z,13.9
2017-05-12T04:43:03.229Z,13.9
2017-05-12T04:44:04.840Z,13.9
2017-05-12T04:45:06.791Z,14
2017-05-12T04:46:08.406Z,14
2017-05-12T04:47:10.395Z,13.9
2017-05-12T04:48:12.015Z,13.9
2017-05-12T04:49:13.622Z,13.9
2017-05-12T04:50:15.935Z,13.9
2017-05-12T04:51:17.545Z,13.9
2017-05-12T04:52:19.159Z,13.9
2017-05-12T04:53:20.772Z,13.9
2017-05-12T04:54:22.389Z,13.9
2017-05-12T04:55:24.338Z,13.9
2017-05-12T04:56:25.951Z,13.9
2017-05-12T04:57:27.573Z,13.9
2017-05-12T04:58:29.407Z,14
2017-05-12T04:59:31.039Z,14
2017-05-12T05:00:32.659Z,14
2017-05-12T05:01:34.273Z,14
2017-05-12T05:02:35.898Z,14
2017-05-12T05:03:37.503Z,14.1
2017-05-12T05:04:39.130Z,14.1
2017-05-12T05:05:40.735Z,14.1
2017-05-12T05:06:42.346Z,14.1
2017-05-12T05:07:43.950Z,14.1
2017-05-12T05:08:45.572Z,14.1
2017-05-12T05:09:47.189Z,14.2
2017-05-12T05:10:49.153Z,14.2
2017-05-12T05:11:50.763Z,14.2
2017-05-12T05:12:52.376Z,14.2
2017-05-12T05:13:53.988Z,14.2
2017-05-12T05:14:55.607Z,14.2
2017-05-12T05:15:57.214Z,14.2
2017-05-12T05:16:58.829Z,14.2
2017-05-12T05:18:00.437Z,14.2
2017-05-12T05:19:02.055Z,14.2
2017-05-12T05:20:03.738Z,14.2
2017-05-12T05:21:05.390Z,14.2
2017-05-12T05:22:06.998Z,14.2
2017-05-12T05:23:08.611Z,14.2
2017-05-12T05:24:10.226Z,14.2
2017-05-12T05:25:11.840Z,14.2
2017-05-12T05:26:13.453Z,14.2
2017-05-12T05:27:15.063Z,14.2
2017-05-12T05:28:16.670Z,14.2
2017-05-12T05:29:18.301Z,14.3
2017-05-12T05:30:19.918Z,14.3
2017-05-12T05:31:21.535Z,14.3
2017-05-12T05:32:23.491Z,14.3
2017-05-12T05:33:25.444Z,14.3
2017-05-12T05:34:27.406Z,14.3
2017-05-12T05:35:29.023Z,14.3
2017-05-12T05:36:30.635Z,14.3
2017-05-12T05:37:32.246Z,14.3
2017-05-12T05:38:33.900Z,14.3
2017-05-12T05:39:35.510Z,14.3
2017-05-12T05:40:37.134Z,14.3
2017-05-12T05:41:38.765Z,14.3
2017-05-12T05:42:40.415Z,14.3
2017-05-12T05:43:42.037Z,14.3
2017-05-12T05:44:43.673Z,14.3
2017-05-12T05:45:45.298Z,14.3
2017-05-12T05:46:46.937Z,14.2
2017-05-12T05:47:48.570Z,14.2
2017-05-12T05:48:50.225Z,14.2
2017-05-12T05:49:51.861Z,14.2
2017-05-12T05:50:53.495Z,14.2
2017-05-12T05:51:55.129Z,14.2
2017-05-12T05:52:56.781Z,14.2
2017-05-12T05:53:58.422Z,14.2
2017-05-12T05:55:00.067Z,14.2
2017-05-12T05:56:01.723Z,14.3
2017-05-12T05:57:03.365Z,14.2
2017-05-12T05:58:05.013Z,14.3
2017-05-12T05:59:06.644Z,14.2
2017-05-12T06:00:08.271Z,14.3
2017-05-12T06:01:09.951Z,14.3
2017-05-12T06:02:11.586Z,14.3
2017-05-12T06:03:13.216Z,14.3
2017-05-12T06:04:14.853Z,14.3
2017-05-12T06:05:16.482Z,14.3
2017-05-12T06:06:18.115Z,14.3
2017-05-12T06:07:20.095Z,14.3
2017-05-12T06:08:21.734Z,14.3
2017-05-12T06:09:23.363Z,14.3
2017-05-12T06:10:25.003Z,14.4
2017-05-12T06:11:26.629Z,14.4
2017-05-12T06:12:28.263Z,14.3
2017-05-12T06:13:29.896Z,14.3
2017-05-12T06:14:31.534Z,14.3
2017-05-12T06:15:33.174Z,14.3
2017-05-12T06:16:34.805Z,14.3
2017-05-12T06:17:36.441Z,14.3
2017-05-12T06:18:38.078Z,14.4
2017-05-12T06:19:39.708Z,14.4
2017-05-12T06:20:41.339Z,14.4
2017-05-12T06:21:43.011Z,14.5
2017-05-12T06:22:44.655Z,14.5
2017-05-12T06:23:46.279Z,14.5
2017-05-12T06:24:47.920Z,14.6
2017-05-12T06:25:49.594Z,14.6
2017-05-12T06:26:51.246Z,14.6
2017-05-12T06:27:52.877Z,14.7
2017-05-12T06:28:54.842Z,14.7
2017-05-12T06:29:56.815Z,14.7
2017-05-12T06:30:58.453Z,14.8
2017-05-12T06:32:00.086Z,14.8
2017-05-12T06:33:01.714Z,14.9
2017-05-12T06:34:03.350Z,14.9
2017-05-12T06:35:05.319Z,14.9
2017-05-12T06:36:06.955Z,14.9
2017-05-12T06:37:08.585Z,14.9
2017-05-12T06:38:10.230Z,14.9
2017-05-12T06:39:11.864Z,14.9
2017-05-12T06:40:13.512Z,14.9
2017-05-12T06:41:15.487Z,14.9
2017-05-12T06:42:17.133Z,14.9
2017-05-12T06:43:18.773Z,15
2017-05-12T06:44:20.415Z,15
2017-05-12T06:45:22.409Z,15
2017-05-12T06:46:24.039Z,15
2017-05-12T06:47:25.676Z,15
2017-05-12T06:48:27.658Z,15
2017-05-12T06:49:29.289Z,15
2017-05-12T06:50:30.930Z,15
2017-05-12T06:51:32.556Z,15
2017-05-12T06:52:34.188Z,15
2017-05-12T06:53:36.519Z,15
2017-05-12T06:54:38.503Z,15
2017-05-12T06:55:40.145Z,15
2017-05-12T06:56:41.783Z,14.9
2017-05-12T06:57:43.759Z,14.9
2017-05-12T06:58:45.407Z,15
2017-05-12T06:59:47.051Z,15
2017-05-12T07:00:48.677Z,15
2017-05-12T07:01:50.316Z,15.1
2017-05-12T07:02:51.952Z,15.1
2017-05-12T07:03:53.590Z,15.1
2017-05-12T07:04:55.228Z,15.2
2017-05-12T07:05:56.867Z,15.2
2017-05-12T07:06:58.853Z,15.3
2017-05-12T07:08:00.483Z,15.3
2017-05-12T07:09:02.114Z,15.3
2017-05-12T07:10:03.763Z,15.4
2017-05-12T07:11:05.395Z,15.4
2017-05-12T07:12:07.033Z,15.5
2017-05-12T07:13:08.661Z,15.5
2017-05-12T07:14:10.307Z,15.5
2017-05-12T07:15:12.273Z,15.6
2017-05-12T07:16:13.913Z,15.6
2017-05-12T07:17:15.542Z,15.6
2017-05-12T07:18:17.177Z,15.6
2017-05-12T07:19:18.813Z,15.7
2017-05-12T07:20:20.784Z,15.7
2017-05-12T07:21:22.465Z,15.7
2017-05-12T07:22:24.095Z,15.7
2017-05-12T07:23:25.723Z,15.7
2017-05-12T07:24:27.363Z,15.8
2017-05-12T07:25:29.013Z,15.8
2017-05-12T07:26:30.994Z,15.8
2017-05-12T07:27:32.633Z,15.8
2017-05-12T07:28:34.267Z,15.9
2017-05-12T07:29:35.901Z,15.9
2017-05-12T07:30:37.533Z,15.9
2017-05-12T07:31:39.511Z,16
2017-05-12T07:32:41.140Z,16
2017-05-12T07:33:42.781Z,16
2017-05-12T07:34:44.434Z,16.1
2017-05-12T07:35:46.068Z,16.1
2017-05-12T07:36:47.700Z,16.1
2017-05-12T07:37:49.325Z,16.1
2017-05-12T07:38:50.970Z,16.1
2017-05-12T07:39:52.603Z,16.1
2017-05-12T07:40:54.234Z,16.1
2017-05-12T07:41:55.873Z,16.2
2017-05-12T07:42:58.189Z,16.2
2017-05-12T07:43:59.818Z,16.2
2017-05-12T07:45:01.451Z,16.2
2017-05-12T07:46:03.087Z,16.3
2017-05-12T07:47:04.716Z,16.4
2017-05-12T07:48:06.347Z,16.4
2017-05-12T07:49:07.993Z,16.5
2017-05-12T07:50:09.993Z,16.5
2017-05-12T07:51:11.642Z,16.5
2017-05-12T07:52:13.290Z,16.6
2017-05-12T07:53:15.266Z,16.6
2017-05-12T07:54:16.909Z,16.6
2017-05-12T07:55:18.547Z,16.6
2017-05-12T07:56:20.521Z,16.7
2017-05-12T07:57:22.169Z,16.7
2017-05-12T07:58:24.142Z,16.7
2017-05-12T07:59:25.779Z,16.7
2017-05-12T08:00:27.758Z,16.6
2017-05-12T08:01:29.388Z,16.7
2017-05-12T08:02:31.023Z,16.7
2017-05-12T08:03:33.016Z,16.8
2017-05-12T08:04:34.653Z,16.8
2017-05-12T08:05:36.295Z,16.9
2017-05-12T08:06:37.922Z,17
2017-05-12T08:07:39.555Z,17.1
2017-05-12T08:08:41.193Z,17.1
2017-05-12T08:09:43.192Z,17.2
2017-05-12T08:10:45.537Z,17.3
2017-05-12T08:11:47.220Z,17.3
2017-05-12T08:12:48.849Z,17.3
2017-05-12T08:13:50.482Z,17.3
2017-05-12T08:14:52.470Z,17.3
2017-05-12T08:15:54.121Z,17.3
2017-05-12T08:16:56.115Z,17.3
2017-05-12T08:17:57.746Z,17.3
2017-05-12T08:18:59.392Z,17.3
2017-05-12T08:20:01.362Z,17.3
2017-05-12T08:21:03.006Z,17.3
2017-05-12T08:22:04.648Z,17.3
2017-05-12T08:23:06.287Z,17.3
2017-05-12T08:24:08.245Z,17.3
2017-05-12T08:25:09.874Z,17.4
2017-05-12T08:26:11.510Z,17.3
2017-05-12T08:27:13.138Z,17.4
2017-05-12T08:28:14.788Z,17.4
2017-05-12T08:29:16.422Z,17.3
2017-05-12T08:30:18.069Z,17.4
2017-05-12T08:31:19.703Z,17.4
2017-05-12T08:32:21.345Z,17.4
2017-05-12T08:33:22.991Z,17.5
2017-05-12T08:34:25.315Z,17.4
2017-05-12T08:35:26.951Z,17.5
2017-05-12T08:36:28.588Z,17.4
2017-05-12T08:37:30.265Z,17.4
2017-05-12T08:38:31.903Z,17.4
2017-05-12T08:39:33.543Z,17.5
2017-05-12T08:40:35.186Z,17.5
2017-05-12T08:41:36.817Z,17.5
2017-05-12T08:42:38.797Z,17.5
2017-05-12T08:43:40.434Z,17.6
2017-05-12T08:44:42.079Z,17.6
2017-05-12T08:45:44.054Z,17.7
2017-05-12T08:46:45.689Z,17.7
2017-05-12T08:47:47.324Z,17.8
2017-05-12T08:48:48.954Z,17.8
2017-05-12T08:49:50.593Z,17.8
2017-05-12T08:50:52.576Z,17.8
2017-05-12T08:51:54.220Z,17.8
2017-05-12T08:52:55.859Z,17.9
2017-05-12T08:53:57.501Z,17.9
2017-05-12T08:54:59.139Z,17.9
2017-05-12T08:56:00.782Z,18
2017-05-12T08:57:02.424Z,18
2017-05-12T08:58:04.059Z,18
2017-05-12T08:59:05.698Z,18.1
2017-05-12T09:00:07.343Z,18.1
2017-05-12T09:01:08.999Z,18.2
2017-05-12T09:02:10.645Z,18.3
2017-05-12T09:03:12.279Z,18.3
2017-05-12T09:04:13.932Z,18.4
2017-05-12T09:05:15.609Z,18.5
2017-05-12T09:06:17.265Z,18.5
2017-05-12T09:07:18.896Z,18.6
2017-05-12T09:08:20.552Z,18.6
2017-05-12T09:09:22.182Z,18.6
2017-05-12T09:10:23.828Z,18.7
2017-05-12T09:11:25.456Z,18.7
2017-05-12T09:12:27.098Z,18.8
2017-05-12T09:13:28.743Z,18.8
2017-05-12T09:14:30.385Z,18.9
2017-05-12T09:15:32.027Z,18.9
2017-05-12T09:16:33.665Z,19
2017-05-12T09:17:35.300Z,19.1
2017-05-12T09:18:36.946Z,19.3
2017-05-12T09:19:38.597Z,19.3
2017-05-12T09:20:40.233Z,19.4
2017-05-12T09:21:41.870Z,19.5
2017-05-12T09:22:43.855Z,19.6
2017-05-12T09:23:45.499Z,19.8
2017-05-12T09:24:47.137Z,19.9
2017-05-12T09:25:48.778Z,20.2
2017-05-12T09:26:50.434Z,20.4
2017-05-12T09:27:52.076Z,20.6
2017-05-12T09:28:53.726Z,20.8
2017-05-12T09:29:55.365Z,21
2017-05-12T09:30:57.006Z,21.3
2017-05-12T09:31:58.648Z,21.5
2017-05-12T09:33:00.286Z,21.8
2017-05-12T09:34:02.271Z,22.1
2017-05-12T09:35:03.921Z,22.4
2017-05-12T09:36:05.927Z,22.6
2017-05-12T09:37:07.577Z,22.8
2017-05-12T09:38:09.214Z,23.1
2017-05-12T09:39:10.866Z,23.3
2017-05-12T09:40:12.509Z,23.4
2017-05-12T09:41:14.506Z,23.6
2017-05-12T09:42:16.165Z,23.7
2017-05-12T09:43:17.815Z,23.7
2017-05-12T09:44:19.460Z,23.8
2017-05-12T09:45:21.111Z,23.8
2017-05-12T09:46:23.100Z,23.8
2017-05-12T09:47:24.745Z,23.9
2017-05-12T09:48:26.393Z,23.9
2017-05-12T09:49:28.035Z,24
2017-05-12T09:50:29.683Z,24
2017-05-12T09:51:31.332Z,24.1
2017-05-12T09:52:32.978Z,24
2017-05-12T09:53:34.636Z,24
2017-05-12T09:54:36.276Z,24
2017-05-12T09:55:37.923Z,23.9
2017-05-12T09:56:39.570Z,23.8
2017-05-12T09:57:41.226Z,23.7
2017-05-12T09:58:43.210Z,23.7
2017-05-12T09:59:44.854Z,23.6
2017-05-12T10:00:46.503Z,23.6
2017-05-12T10:01:48.147Z,23.6
2017-05-12T10:02:49.802Z,23.6
2017-05-12T10:03:51.455Z,23.6
2017-05-12T10:04:53.098Z,23.5
2017-05-12T10:05:54.746Z,23.5
2017-05-12T10:06:56.392Z,23.5
2017-05-12T10:07:58.047Z,23.5
2017-05-12T10:08:59.701Z,23.4
2017-05-12T10:10:01.690Z,23.4
2017-05-12T10:11:03.345Z,23.5
2017-05-12T10:12:04.983Z,23.5
2017-05-12T10:13:06.972Z,23.6
2017-05-12T10:14:08.613Z,23.6
2017-05-12T10:15:10.271Z,23.6
2017-05-12T10:16:11.922Z,23.7
2017-05-12T10:17:13.565Z,23.7
2017-05-12T10:18:34.397Z,23.8
2017-05-12T10:19:36.022Z,23.8
2017-05-12T10:20:37.644Z,23.9
2017-05-12T10:21:39.278Z,23.9
2017-05-12T10:22:40.901Z,24
2017-05-12T10:23:42.867Z,24
2017-05-12T10:24:44.507Z,24.1
2017-05-12T10:25:46.134Z,24.2
2017-05-12T10:26:47.798Z,24.3
2017-05-12T10:27:49.421Z,24.3
2017-05-12T10:28:51.052Z,24.3
2017-05-12T10:29:53.030Z,24.2
2017-05-12T10:30:54.653Z,24.2
2017-05-12T10:31:56.288Z,24.2
2017-05-12T10:32:57.914Z,24.2
2017-05-12T10:33:59.548Z,24.1
2017-05-12T10:35:01.170Z,24.1
2017-05-12T10:36:03.164Z,24.2
2017-05-12T10:37:04.796Z,24.2
2017-05-12T10:38:06.424Z,24.3
2017-05-12T10:39:08.054Z,24.3
2017-05-12T10:40:10.025Z,24.4
2017-05-12T10:41:11.701Z,24.4
2017-05-12T10:42:13.321Z,24.4
2017-05-12T10:43:14.948Z,24.4
2017-05-12T10:44:16.589Z,24.4
2017-05-12T10:45:18.212Z,24.4
2017-05-12T10:46:19.833Z,24.4
2017-05-12T10:47:21.456Z,24.3
2017-05-12T10:48:23.085Z,24.4
2017-05-12T10:49:24.714Z,24.4
2017-05-12T10:50:26.333Z,24.4
2017-05-12T10:51:27.966Z,24.4
2017-05-12T10:52:29.585Z,24.3
2017-05-12T10:53:31.210Z,24.3
2017-05-12T10:54:32.843Z,24.3
2017-05-12T10:55:34.475Z,24.2
2017-05-12T10:56:36.093Z,24.2
2017-05-12T10:57:37.711Z,24.1
2017-05-12T10:58:39.334Z,24.1
2017-05-12T10:59:40.961Z,24
2017-05-12T11:00:42.927Z,23.9
2017-05-12T11:01:44.555Z,23.9
2017-05-12T11:02:46.517Z,23.9
2017-05-12T11:03:48.142Z,23.9
2017-05-12T11:04:49.773Z,24
2017-05-12T11:05:51.401Z,24
2017-05-12T11:06:53.020Z,24
2017-05-12T11:07:54.652Z,24
2017-05-12T11:08:56.271Z,24.1
2017-05-12T11:09:58.249Z,24.1
2017-05-12T11:10:59.871Z,24.1
2017-05-12T11:12:01.519Z,24.2
2017-05-12T11:13:03.150Z,24.1
2017-05-12T11:14:04.793Z,24.1
2017-05-12T11:15:06.422Z,24.1
2017-05-12T11:16:08.046Z,24.1
2017-05-12T11:17:10.070Z,24
2017-05-12T11:18:11.702Z,24
2017-05-12T11:19:13.325Z,24
2017-05-12T11:20:14.953Z,24
2017-05-12T11:21:16.575Z,24
2017-05-12T11:22:18.198Z,24
2017-05-12T11:23:19.830Z,23.9
2017-05-12T11:24:21.792Z,24
2017-05-12T11:25:23.425Z,24
2017-05-12T11:26:25.056Z,24
2017-05-12T11:27:26.903Z,24.1
2017-05-12T11:28:28.566Z,24.1
2017-05-12T11:29:30.193Z,24.1
2017-05-12T11:30:31.831Z,24.2
2017-05-12T11:31:33.455Z,24.2
2017-05-12T11:32:35.136Z,24.2
2017-05-12T11:33:36.783Z,24.3
2017-05-12T11:34:38.410Z,24.3
2017-05-12T11:35:40.043Z,24.3
2017-05-12T11:36:41.810Z,24.3
2017-05-12T11:37:43.617Z,24.4
2017-05-12T11:38:45.384Z,24.4
2017-05-12T11:39:47.019Z,24.4
2017-05-12T11:40:48.646Z,24.5
2017-05-12T11:41:50.270Z,24.5
2017-05-12T11:42:51.891Z,24.5
2017-05-12T11:43:53.525Z,24.5
2017-05-12T11:44:55.199Z,24.6
2017-05-12T11:45:56.870Z,24.7
2017-05-12T11:46:58.498Z,24.8
2017-05-12T11:48:00.121Z,24.9
2017-05-12T11:49:01.766Z,25
2017-05-12T11:50:03.423Z,25.1
2017-05-12T11:51:05.190Z,25.1
2017-05-12T11:52:07.203Z,25.3
2017-05-12T11:53:08.828Z,25.4
2017-05-12T11:54:10.469Z,25.4
2017-05-12T11:55:12.112Z,25.6
2017-05-12T11:56:13.732Z,25.7
2017-05-12T11:57:15.362Z,25.8
2017-05-12T11:58:16.989Z,26
2017-05-12T11:59:18.623Z,26.2
2017-05-12T12:00:20.244Z,26.4
2017-05-12T12:01:21.908Z,26.7
2017-05-12T12:02:23.543Z,26.9
2017-05-12T12:03:25.180Z,27.1
2017-05-12T12:04:27.145Z,27.4
2017-05-12T12:05:28.777Z,27.5
2017-05-12T12:06:30.446Z,27.7
2017-05-12T12:07:32.251Z,27.9
2017-05-12T12:08:34.114Z,28.1
2017-05-12T12:09:36.146Z,28.1
2017-05-12T12:10:37.771Z,28.2
2017-05-12T12:11:39.401Z,28.3
2017-05-12T12:12:41.035Z,28.4
2017-05-12T12:13:43.008Z,28.6
2017-05-12T12:14:44.973Z,28.7
2017-05-12T12:15:46.611Z,28.7
2017-05-12T12:16:48.244Z,28.8
2017-05-12T12:17:49.870Z,28.9
2017-05-12T12:18:51.502Z,29
2017-05-12T12:19:53.144Z,28.9
2017-05-12T12:20:54.777Z,29
2017-05-12T12:21:56.441Z,29
2017-05-12T12:22:58.073Z,29
2017-05-12T12:23:59.707Z,29
2017-05-12T12:25:01.674Z,29.1
2017-05-12T12:26:03.305Z,29.2
2017-05-12T12:27:05.011Z,29.3
2017-05-12T12:28:06.851Z,29.3
2017-05-12T12:29:08.534Z,29.4
2017-05-12T12:30:10.324Z,29.5
2017-05-12T12:31:12.028Z,29.7
2017-05-12T12:32:13.694Z,29.8
2017-05-12T12:33:15.766Z,29.9
2017-05-12T12:34:17.437Z,30
2017-05-12T12:35:19.066Z,30.1
2017-05-12T12:36:20.839Z,30.1
2017-05-12T12:37:22.468Z,30.2
2017-05-12T12:38:24.106Z,30.3
2017-05-12T12:39:25.731Z,30.4
2017-05-12T12:40:27.373Z,30.4
2017-05-12T12:41:29.070Z,30.5
2017-05-12T12:42:30.699Z,30.6
2017-05-12T12:43:32.875Z,30.6
2017-05-12T12:44:34.991Z,30.7
2017-05-12T12:45:36.623Z,30.7
2017-05-12T12:46:40.364Z,30.6
2017-05-12T12:47:44.754Z,30.7
2017-05-12T12:48:46.622Z,30.7
2017-05-12T12:49:48.253Z,30.7
2017-05-12T12:50:49.901Z,30.8
2017-05-12T12:51:51.546Z,30.8
2017-05-12T12:52:53.180Z,30.9
2017-05-12T12:53:54.819Z,30.9
2017-05-12T12:54:56.806Z,30.8
2017-05-12T12:55:58.437Z,30.7
2017-05-12T12:57:00.071Z,30.7
2017-05-12T12:58:01.711Z,30.6
2017-05-12T12:59:03.689Z,30.6
2017-05-12T13:00:05.326Z,30.6
2017-05-12T13:01:07.337Z,30.6
2017-05-12T13:02:08.976Z,30.5
2017-05-12T13:03:10.667Z,30.6
2017-05-12T13:04:12.356Z,30.6
2017-05-12T13:05:13.984Z,30.6
2017-05-12T13:06:15.633Z,30.7
2017-05-12T13:07:17.265Z,30.8
2017-05-12T13:08:18.894Z,30.9
2017-05-12T13:09:20.550Z,30.9
2017-05-12T13:10:22.196Z,31.1
2017-05-12T13:11:23.826Z,31.1
2017-05-12T13:12:25.464Z,31.2
2017-05-12T13:13:27.095Z,31.3
2017-05-12T13:14:29.141Z,31.3
2017-05-12T13:15:30.781Z,31.4
2017-05-12T13:16:32.422Z,31.4
2017-05-12T13:17:34.054Z,31.5
2017-05-12T13:18:35.698Z,31.5
2017-05-12T13:19:37.345Z,31.6
2017-05-12T13:20:38.986Z,31.7
2017-05-12T13:21:40.623Z,31.7
2017-05-12T13:22:42.604Z,31.7
2017-05-12T13:23:44.584Z,31.7
2017-05-12T13:24:46.231Z,31.7
2017-05-12T13:25:47.878Z,31.7
2017-05-12T13:26:49.516Z,31.7
2017-05-12T13:27:51.148Z,31.7
2017-05-12T13:28:53.123Z,31.7
2017-05-12T13:29:54.758Z,31.7
2017-05-12T13:30:56.391Z,31.7
2017-05-12T13:31:58.030Z,31.6
2017-05-12T13:33:00.007Z,31.7
2017-05-12T13:34:01.776Z,31.7
2017-05-12T13:35:03.757Z,31.8
2017-05-12T13:36:05.394Z,31.8
2017-05-12T13:37:07.037Z,31.9
2017-05-12T13:38:08.687Z,31.9
2017-05-12T13:39:10.661Z,31.9
2017-05-12T13:40:12.298Z,32
2017-05-12T13:41:13.943Z,31.9
2017-05-12T13:42:15.582Z,31.9
2017-05-12T13:43:17.215Z,32
2017-05-12T13:44:18.852Z,32.1
2017-05-12T13:45:20.487Z,32.1
2017-05-12T13:46:22.494Z,32.2
2017-05-12T13:47:24.132Z,32.2
2017-05-12T13:48:25.796Z,32.3